sensor_id;sensor_type;location;lat;lon;timestamp;pressure;altitude;pressure_sealevel;temperature;humidity
37856;BME280;23694;43.274;26.924;2023-05-25T00:01:46;98746.72;;;16.15;94.95
37856;BME280;23694;43.274;26.924;2023-05-25T00:04:14;98737.28;;;16.13;93.92
37856;BME280;23694;43.274;26.924;2023-05-25T00:06:42;98751.28;;;16.23;93.60
37856;BME280;23694;43.274;26.924;2023-05-25T00:09:12;98745.03;;;16.24;92.82
37856;BME280;23694;43.274;26.924;2023-05-25T00:11:38;98748.94;;;16.20;92.74
37856;BME280;23694;43.274;26.924;2023-05-25T00:14:04;98748.69;;;16.13;93.01
37856;BME280;23694;43.274;26.924;2023-05-25T00:16:31;98754.78;;;16.14;92.82
37856;BME280;23694;43.274;26.924;2023-05-25T00:19:04;98755.66;;;16.05;92.77
37856;BME280;23694;43.274;26.924;2023-05-25T00:21:30;98755.13;;;16.01;93.26
37856;BME280;23694;43.274;26.924;2023-05-25T00:23:59;98759.28;;;16.04;93.08
37856;BME280;23694;43.274;26.924;2023-05-25T00:26:25;98760.38;;;16.11;92.68
37856;BME280;23694;43.274;26.924;2023-05-25T00:28:51;98758.97;;;16.16;91.76
37856;BME280;23694;43.274;26.924;2023-05-25T00:31:17;98751.44;;;16.22;91.39
37856;BME280;23694;43.274;26.924;2023-05-25T00:33:43;98752.13;;;16.24;91.41
37856;BME280;23694;43.274;26.924;2023-05-25T00:36:10;98743.38;;;16.13;91.73
37856;BME280;23694;43.274;26.924;2023-05-25T00:38:36;98756.47;;;16.15;91.29
37856;BME280;23694;43.274;26.924;2023-05-25T00:41:02;98755.94;;;16.02;91.65
37856;BME280;23694;43.274;26.924;2023-05-25T00:43:28;98754.44;;;15.99;91.81
37856;BME280;23694;43.274;26.924;2023-05-25T00:45:54;98757.91;;;16.00;91.77
37856;BME280;23694;43.274;26.924;2023-05-25T00:48:21;98756.09;;;16.00;91.42
37856;BME280;23694;43.274;26.924;2023-05-25T00:50:47;98757.34;;;15.96;91.71
37856;BME280;23694;43.274;26.924;2023-05-25T00:53:13;98758.75;;;15.91;91.95
37856;BME280;23694;43.274;26.924;2023-05-25T00:55:44;98754.19;;;15.83;92.40
37856;BME280;23694;43.274;26.924;2023-05-25T00:58:13;98760.59;;;15.80;92.50
37856;BME280;23694;43.274;26.924;2023-05-25T01:00:41;98762.97;;;15.74;93.15
37856;BME280;23694;43.274;26.924;2023-05-25T01:03:14;98759.50;;;15.73;93.38
37856;BME280;23694;43.274;26.924;2023-05-25T01:05:47;98761.56;;;15.79;92.89
37856;BME280;23694;43.274;26.924;2023-05-25T01:08:16;98754.22;;;15.73;93.38
37856;BME280;23694;43.274;26.924;2023-05-25T01:10:47;98750.75;;;15.63;93.78
37856;BME280;23694;43.274;26.924;2023-05-25T01:13:16;98749.50;;;15.67;93.88
37856;BME280;23694;43.274;26.924;2023-05-25T01:15:44;98741.41;;;15.59;93.93
37856;BME280;23694;43.274;26.924;2023-05-25T01:18:14;98747.84;;;15.66;94.03
37856;BME280;23694;43.274;26.924;2023-05-25T01:21:01;98756.72;;;15.75;92.95
37856;BME280;23694;43.274;26.924;2023-05-25T01:23:41;98751.16;;;15.68;93.65
37856;BME280;23694;43.274;26.924;2023-05-25T01:26:12;98754.63;;;15.69;94.07
37856;BME280;23694;43.274;26.924;2023-05-25T01:28:45;98757.00;;;15.62;94.34
37856;BME280;23694;43.274;26.924;2023-05-25T01:31:13;98745.63;;;15.62;94.46
37856;BME280;23694;43.274;26.924;2023-05-25T01:33:41;98752.69;;;15.71;93.84
37856;BME280;23694;43.274;26.924;2023-05-25T01:36:09;98752.94;;;15.77;93.50
37856;BME280;23694;43.274;26.924;2023-05-25T01:38:35;98745.75;;;15.70;93.89
37856;BME280;23694;43.274;26.924;2023-05-25T01:41:01;98746.56;;;15.70;93.79
37856;BME280;23694;43.274;26.924;2023-05-25T01:43:27;98749.50;;;15.67;94.10
37856;BME280;23694;43.274;26.924;2023-05-25T01:45:59;98748.38;;;15.70;94.17
37856;BME280;23694;43.274;26.924;2023-05-25T01:51:24;98750.06;;;15.61;94.58
37856;BME280;23694;43.274;26.924;2023-05-25T01:54:02;98754.63;;;15.59;94.82
37856;BME280;23694;43.274;26.924;2023-05-25T01:56:31;98751.88;;;15.61;95.31
37856;BME280;23694;43.274;26.924;2023-05-25T01:59:00;98755.47;;;15.60;95.49
37856;BME280;23694;43.274;26.924;2023-05-25T02:01:27;98754.50;;;15.61;95.68
37856;BME280;23694;43.274;26.924;2023-05-25T02:03:55;98746.16;;;15.65;94.67
37856;BME280;23694;43.274;26.924;2023-05-25T02:06:21;98761.16;;;15.74;94.42
37856;BME280;23694;43.274;26.924;2023-05-25T02:08:47;98754.94;;;15.66;95.12
37856;BME280;23694;43.274;26.924;2023-05-25T02:11:14;98756.16;;;15.71;95.19
37856;BME280;23694;43.274;26.924;2023-05-25T02:13:40;98751.69;;;15.81;94.52
37856;BME280;23694;43.274;26.924;2023-05-25T02:16:06;98756.97;;;15.81;94.52
37856;BME280;23694;43.274;26.924;2023-05-25T02:18:32;98760.16;;;15.85;94.71
37856;BME280;23694;43.274;26.924;2023-05-25T02:20:59;98770.03;;;15.83;95.13
37856;BME280;23694;43.274;26.924;2023-05-25T02:23:25;98761.16;;;15.74;95.69
37856;BME280;23694;43.274;26.924;2023-05-25T02:25:51;98755.16;;;15.82;95.44
37856;BME280;23694;43.274;26.924;2023-05-25T02:28:17;98766.41;;;15.84;94.74
37856;BME280;23694;43.274;26.924;2023-05-25T02:30:43;98776.28;;;15.92;94.58
37856;BME280;23694;43.274;26.924;2023-05-25T02:33:09;98770.00;;;15.93;94.02
37856;BME280;23694;43.274;26.924;2023-05-25T02:35:36;98780.72;;;15.91;94.03
37856;BME280;23694;43.274;26.924;2023-05-25T02:38:03;98781.84;;;15.89;93.85
37856;BME280;23694;43.274;26.924;2023-05-25T02:40:29;98790.47;;;15.81;94.65
37856;BME280;23694;43.274;26.924;2023-05-25T02:42:55;98780.19;;;15.88;94.07
37856;BME280;23694;43.274;26.924;2023-05-25T02:45:21;98785.16;;;15.91;93.88
37856;BME280;23694;43.274;26.924;2023-05-25T02:47:47;98786.97;;;15.90;93.65
37856;BME280;23694;43.274;26.924;2023-05-25T04:20:42;98827.25;;;22.23;61.37
37856;BME280;23694;43.274;26.924;2023-05-25T04:23:08;98828.97;;;22.83;58.18
37856;BME280;23694;43.274;26.924;2023-05-25T04:25:34;98827.31;;;23.33;55.84
37856;BME280;23694;43.274;26.924;2023-05-25T04:28:02;98834.81;;;23.80;54.59
37856;BME280;23694;43.274;26.924;2023-05-25T04:30:28;98834.16;;;23.99;53.53
37856;BME280;23694;43.274;26.924;2023-05-25T04:32:56;98834.22;;;24.27;52.62
37856;BME280;23694;43.274;26.924;2023-05-25T04:35:22;98828.13;;;23.69;54.50
37856;BME280;23694;43.274;26.924;2023-05-25T04:37:48;98841.31;;;23.92;54.95
37856;BME280;23694;43.274;26.924;2023-05-25T04:40:14;98839.31;;;24.50;51.56
37856;BME280;23694;43.274;26.924;2023-05-25T04:42:46;98837.25;;;24.80;50.40
37856;BME280;23694;43.274;26.924;2023-05-25T04:45:12;98838.47;;;24.78;50.26
37856;BME280;23694;43.274;26.924;2023-05-25T04:47:42;98849.38;;;25.11;49.86
37856;BME280;23694;43.274;26.924;2023-05-25T04:50:09;98840.56;;;25.23;49.41
37856;BME280;23694;43.274;26.924;2023-05-25T04:52:35;98846.66;;;25.65;48.11
37856;BME280;23694;43.274;26.924;2023-05-25T04:55:01;98845.28;;;25.89;47.53
37856;BME280;23694;43.274;26.924;2023-05-25T04:57:28;98844.50;;;26.08;46.55
37856;BME280;23694;43.274;26.924;2023-05-25T04:59:56;98855.81;;;26.63;45.70
37856;BME280;23694;43.274;26.924;2023-05-25T05:02:23;98841.53;;;27.40;43.69
37856;BME280;23694;43.274;26.924;2023-05-25T05:04:49;98850.97;;;28.19;41.71
37856;BME280;23694;43.274;26.924;2023-05-25T05:07:19;98849.75;;;28.15;40.91
37856;BME280;23694;43.274;26.924;2023-05-25T05:09:48;98854.53;;;28.13;41.92
37856;BME280;23694;43.274;26.924;2023-05-25T05:12:14;98853.00;;;28.92;39.66
37856;BME280;23694;43.274;26.924;2023-05-25T05:14:40;98853.22;;;29.27;38.98
37856;BME280;23694;43.274;26.924;2023-05-25T05:17:06;98853.59;;;28.94;39.25
37856;BME280;23694;43.274;26.924;2023-05-25T05:19:32;98850.44;;;27.41;42.71
37856;BME280;23694;43.274;26.924;2023-05-25T05:21:59;98862.44;;;26.21;46.71
37856;BME280;23694;43.274;26.924;2023-05-25T05:24:25;98858.03;;;24.01;53.55
37856;BME280;23694;43.274;26.924;2023-05-25T05:26:51;98848.31;;;23.93;54.51
37856;BME280;23694;43.274;26.924;2023-05-25T05:29:17;98846.84;;;23.91;54.58
37856;BME280;23694;43.274;26.924;2023-05-25T05:31:44;98845.31;;;23.82;54.77
37856;BME280;23694;43.274;26.924;2023-05-25T05:34:10;98850.88;;;23.59;56.68
37856;BME280;23694;43.274;26.924;2023-05-25T05:36:36;98848.31;;;22.85;60.68
37856;BME280;23694;43.274;26.924;2023-05-25T05:39:03;98848.78;;;22.89;60.53
37856;BME280;23694;43.274;26.924;2023-05-25T05:41:29;98857.44;;;22.91;61.80
37856;BME280;23694;43.274;26.924;2023-05-25T05:43:55;98856.50;;;22.84;61.08
37856;BME280;23694;43.274;26.924;2023-05-25T05:46:21;98867.84;;;22.10;64.18
37856;BME280;23694;43.274;26.924;2023-05-25T05:48:47;98864.41;;;21.79;66.13
37856;BME280;23694;43.274;26.924;2023-05-25T05:51:13;98856.78;;;21.53;69.09
37856;BME280;23694;43.274;26.924;2023-05-25T05:53:39;98859.31;;;21.46;70.50
37856;BME280;23694;43.274;26.924;2023-05-25T05:56:05;98876.91;;;21.16;72.64
37856;BME280;23694;43.274;26.924;2023-05-25T05:58:32;98870.22;;;21.29;72.79
37856;BME280;23694;43.274;26.924;2023-05-25T06:00:58;98881.94;;;21.50;70.32
37856;BME280;23694;43.274;26.924;2023-05-25T06:03:25;98884.44;;;20.49;74.79
37856;BME280;23694;43.274;26.924;2023-05-25T06:05:53;98883.06;;;20.62;75.59
37856;BME280;23694;43.274;26.924;2023-05-25T06:08:19;98888.06;;;20.65;75.47
37856;BME280;23694;43.274;26.924;2023-05-25T06:10:46;98871.63;;;21.08;72.16
37856;BME280;23694;43.274;26.924;2023-05-25T06:13:12;98884.56;;;20.64;74.11
37856;BME280;23694;43.274;26.924;2023-05-25T06:15:38;98879.69;;;20.92;74.53
37856;BME280;23694;43.274;26.924;2023-05-25T06:18:04;98880.09;;;20.48;75.81
37856;BME280;23694;43.274;26.924;2023-05-25T06:20:30;98886.25;;;20.24;77.01
37856;BME280;23694;43.274;26.924;2023-05-25T06:22:56;98887.88;;;20.82;75.83
37856;BME280;23694;43.274;26.924;2023-05-25T06:25:22;98883.38;;;20.75;74.60
37856;BME280;23694;43.274;26.924;2023-05-25T06:27:48;98877.94;;;21.07;74.49
37856;BME280;23694;43.274;26.924;2023-05-25T06:30:14;98881.47;;;21.47;73.52
37856;BME280;23694;43.274;26.924;2023-05-25T06:32:41;98887.94;;;21.44;74.00
37856;BME280;23694;43.274;26.924;2023-05-25T06:35:08;98886.19;;;22.13;70.04
37856;BME280;23694;43.274;26.924;2023-05-25T06:37:37;98887.81;;;21.38;74.17
37856;BME280;23694;43.274;26.924;2023-05-25T06:40:04;98888.53;;;21.86;71.20
37856;BME280;23694;43.274;26.924;2023-05-25T06:42:30;98887.00;;;21.91;70.65
37856;BME280;23694;43.274;26.924;2023-05-25T06:44:56;98896.97;;;22.72;67.66
37856;BME280;23694;43.274;26.924;2023-05-25T06:47:22;98895.63;;;22.39;67.21
37856;BME280;23694;43.274;26.924;2023-05-25T06:49:48;98892.34;;;22.66;67.49
37856;BME280;23694;43.274;26.924;2023-05-25T06:52:14;98896.88;;;22.13;68.68
37856;BME280;23694;43.274;26.924;2023-05-25T06:54:41;98901.34;;;22.88;65.12
37856;BME280;23694;43.274;26.924;2023-05-25T06:57:07;98900.66;;;23.30;63.46
37856;BME280;23694;43.274;26.924;2023-05-25T06:59:33;98906.25;;;23.65;60.99
37856;BME280;23694;43.274;26.924;2023-05-25T07:01:59;98906.66;;;23.83;60.89
37856;BME280;23694;43.274;26.924;2023-05-25T07:04:25;98901.34;;;23.68;59.53
37856;BME280;23694;43.274;26.924;2023-05-25T07:06:51;98900.94;;;24.08;55.51
37856;BME280;23694;43.274;26.924;2023-05-25T07:09:18;98899.72;;;23.89;56.06
37856;BME280;23694;43.274;26.924;2023-05-25T07:11:44;98907.25;;;24.21;57.87
37856;BME280;23694;43.274;26.924;2023-05-25T07:14:10;98901.78;;;24.08;56.58
37856;BME280;23694;43.274;26.924;2023-05-25T07:16:36;98906.88;;;24.52;54.61
37856;BME280;23694;43.274;26.924;2023-05-25T07:19:02;98915.25;;;23.79;55.99
37856;BME280;23694;43.274;26.924;2023-05-25T07:21:31;98911.03;;;23.91;56.71
37856;BME280;23694;43.274;26.924;2023-05-25T07:24:02;98914.69;;;24.47;54.54
37856;BME280;23694;43.274;26.924;2023-05-25T07:26:29;98913.31;;;24.58;50.58
37856;BME280;23694;43.274;26.924;2023-05-25T07:28:56;98918.03;;;24.56;53.05
37856;BME280;23694;43.274;26.924;2023-05-25T07:31:25;98912.38;;;23.44;56.23
37856;BME280;23694;43.274;26.924;2023-05-25T07:33:51;98912.00;;;23.83;56.64
37856;BME280;23694;43.274;26.924;2023-05-25T07:36:20;98907.16;;;23.93;56.10
37856;BME280;23694;43.274;26.924;2023-05-25T07:38:49;98905.81;;;24.04;56.04
37856;BME280;23694;43.274;26.924;2023-05-25T07:41:15;98911.56;;;24.44;53.03
37856;BME280;23694;43.274;26.924;2023-05-25T07:43:41;98902.84;;;24.91;52.07
37856;BME280;23694;43.274;26.924;2023-05-25T07:46:07;98899.03;;;25.48;49.47
37856;BME280;23694;43.274;26.924;2023-05-25T07:48:33;98903.63;;;24.85;50.94
37856;BME280;23694;43.274;26.924;2023-05-25T07:50:59;98889.84;;;24.11;50.32
37856;BME280;23694;43.274;26.924;2023-05-25T07:53:26;98897.56;;;24.20;49.53
37856;BME280;23694;43.274;26.924;2023-05-25T07:55:52;98894.56;;;24.86;48.70
37856;BME280;23694;43.274;26.924;2023-05-25T07:58:18;98889.66;;;24.12;47.65
37856;BME280;23694;43.274;26.924;2023-05-25T08:00:44;98887.09;;;24.75;47.05
37856;BME280;23694;43.274;26.924;2023-05-25T08:03:10;98888.16;;;24.80;45.35
37856;BME280;23694;43.274;26.924;2023-05-25T08:05:36;98885.25;;;24.04;47.12
37856;BME280;23694;43.274;26.924;2023-05-25T08:08:03;98886.97;;;24.61;45.38
37856;BME280;23694;43.274;26.924;2023-05-25T08:10:29;98885.78;;;24.36;46.38
37856;BME280;23694;43.274;26.924;2023-05-25T08:12:57;98883.97;;;24.00;48.24
37856;BME280;23694;43.274;26.924;2023-05-25T08:15:24;98885.91;;;24.07;47.31
37856;BME280;23694;43.274;26.924;2023-05-25T08:17:51;98890.53;;;24.19;47.03
37856;BME280;23694;43.274;26.924;2023-05-25T08:20:17;98889.97;;;24.73;46.44
37856;BME280;23694;43.274;26.924;2023-05-25T08:22:43;98875.84;;;24.30;46.65
37856;BME280;23694;43.274;26.924;2023-05-25T08:25:10;98882.78;;;23.46;50.00
37856;BME280;23694;43.274;26.924;2023-05-25T08:27:36;98891.81;;;23.81;48.45
37856;BME280;23694;43.274;26.924;2023-05-25T08:30:03;98887.09;;;22.81;50.20
37856;BME280;23694;43.274;26.924;2023-05-25T08:32:30;98890.66;;;23.03;51.11
37856;BME280;23694;43.274;26.924;2023-05-25T08:34:56;98894.28;;;23.61;49.34
37856;BME280;23694;43.274;26.924;2023-05-25T08:37:22;98889.25;;;23.73;49.14
37856;BME280;23694;43.274;26.924;2023-05-25T08:39:49;98897.66;;;23.69;49.59
37856;BME280;23694;43.274;26.924;2023-05-25T08:42:15;98892.69;;;23.66;50.46
37856;BME280;23694;43.274;26.924;2023-05-25T08:44:41;98895.81;;;23.91;51.75
37856;BME280;23694;43.274;26.924;2023-05-25T08:47:10;98892.69;;;23.88;49.94
37856;BME280;23694;43.274;26.924;2023-05-25T08:49:37;98896.22;;;23.88;52.27
37856;BME280;23694;43.274;26.924;2023-05-25T08:52:04;98882.94;;;24.01;51.16
37856;BME280;23694;43.274;26.924;2023-05-25T08:54:36;98878.81;;;23.56;51.28
37856;BME280;23694;43.274;26.924;2023-05-25T08:57:37;98870.22;;;24.03;51.73
37856;BME280;23694;43.274;26.924;2023-05-25T09:00:07;98872.25;;;24.72;49.46
37856;BME280;23694;43.274;26.924;2023-05-25T09:05:22;98863.66;;;25.99;51.24
37856;BME280;23694;43.274;26.924;2023-05-25T09:07:48;98860.19;;;26.44;50.07
37856;BME280;23694;43.274;26.924;2023-05-25T09:10:16;98860.97;;;26.65;49.21
37856;BME280;23694;43.274;26.924;2023-05-25T09:12:43;98858.88;;;27.00;47.06
37856;BME280;23694;43.274;26.924;2023-05-25T09:15:09;98852.44;;;27.07;45.42
37856;BME280;23694;43.274;26.924;2023-05-25T09:17:36;98860.78;;;27.31;44.80
37856;BME280;23694;43.274;26.924;2023-05-25T09:20:02;98851.44;;;27.46;44.11
37856;BME280;23694;43.274;26.924;2023-05-25T09:22:28;98853.22;;;27.66;41.25
37856;BME280;23694;43.274;26.924;2023-05-25T09:24:54;98846.41;;;27.57;41.57
37856;BME280;23694;43.274;26.924;2023-05-25T09:27:22;98857.94;;;27.26;40.47
37856;BME280;23694;43.274;26.924;2023-05-25T09:29:49;98862.41;;;24.86;45.08
37856;BME280;23694;43.274;26.924;2023-05-25T09:32:16;98864.56;;;25.38;45.19
37856;BME280;23694;43.274;26.924;2023-05-25T09:34:46;98856.63;;;25.23;45.20
37856;BME280;23694;43.274;26.924;2023-05-25T09:37:14;98862.19;;;25.76;44.92
37856;BME280;23694;43.274;26.924;2023-05-25T09:39:41;98861.59;;;26.01;44.18
37856;BME280;23694;43.274;26.924;2023-05-25T09:42:09;98862.41;;;25.81;44.96
37856;BME280;23694;43.274;26.924;2023-05-25T09:44:35;98865.53;;;26.11;44.36
37856;BME280;23694;43.274;26.924;2023-05-25T09:47:03;98859.97;;;26.13;45.39
37856;BME280;23694;43.274;26.924;2023-05-25T09:49:29;98860.38;;;26.56;43.59
37856;BME280;23694;43.274;26.924;2023-05-25T09:51:55;98852.31;;;26.63;41.31
37856;BME280;23694;43.274;26.924;2023-05-25T09:54:21;98851.50;;;26.42;43.09
37856;BME280;23694;43.274;26.924;2023-05-25T09:56:50;98858.72;;;26.48;42.30
37856;BME280;23694;43.274;26.924;2023-05-25T09:59:16;98856.88;;;26.29;42.67
37856;BME280;23694;43.274;26.924;2023-05-25T10:01:42;98868.19;;;25.98;44.30
37856;BME280;23694;43.274;26.924;2023-05-25T10:04:09;98875.66;;;25.35;46.98
37856;BME280;23694;43.274;26.924;2023-05-25T10:06:37;98881.56;;;25.17;48.68
37856;BME280;23694;43.274;26.924;2023-05-25T10:09:05;98885.66;;;25.13;47.39
37856;BME280;23694;43.274;26.924;2023-05-25T10:11:35;98882.97;;;25.07;47.93
37856;BME280;23694;43.274;26.924;2023-05-25T10:14:06;98889.84;;;24.88;49.44
37856;BME280;23694;43.274;26.924;2023-05-25T10:16:33;98881.13;;;24.79;49.79
37856;BME280;23694;43.274;26.924;2023-05-25T10:19:11;98872.47;;;24.77;50.22
37856;BME280;23694;43.274;26.924;2023-05-25T10:21:50;98869.38;;;24.74;50.51
37856;BME280;23694;43.274;26.924;2023-05-25T10:24:42;98859.84;;;24.15;52.19
37856;BME280;23694;43.274;26.924;2023-05-25T10:27:17;98850.00;;;24.22;51.92
37856;BME280;23694;43.274;26.924;2023-05-25T10:29:46;98861.91;;;24.41;52.33
37856;BME280;23694;43.274;26.924;2023-05-25T10:32:15;98863.53;;;24.98;50.74
37856;BME280;23694;43.274;26.924;2023-05-25T10:34:45;98871.25;;;25.21;50.18
37856;BME280;23694;43.274;26.924;2023-05-25T10:37:15;98876.66;;;25.27;50.22
37856;BME280;23694;43.274;26.924;2023-05-25T10:39:41;98886.66;;;25.06;51.83
37856;BME280;23694;43.274;26.924;2023-05-25T10:42:09;98896.88;;;24.95;51.95
37856;BME280;23694;43.274;26.924;2023-05-25T10:44:40;98894.41;;;24.66;52.29
37856;BME280;23694;43.274;26.924;2023-05-25T10:47:07;98908.75;;;24.52;51.11
37856;BME280;23694;43.274;26.924;2023-05-25T10:49:50;98921.00;;;24.40;55.14
37856;BME280;23694;43.274;26.924;2023-05-25T10:52:17;98929.41;;;24.15;60.11
37856;BME280;23694;43.274;26.924;2023-05-25T10:54:47;98927.03;;;22.89;63.79
37856;BME280;23694;43.274;26.924;2023-05-25T10:57:23;98952.97;;;21.66;71.48
37856;BME280;23694;43.274;26.924;2023-05-25T11:00:06;98961.41;;;20.83;79.90
37856;BME280;23694;43.274;26.924;2023-05-25T11:02:53;98949.56;;;20.05;82.49
37856;BME280;23694;43.274;26.924;2023-05-25T11:07:55;98934.72;;;18.93;89.61
37856;BME280;23694;43.274;26.924;2023-05-25T11:13:34;98922.41;;;19.52;91.53
37856;BME280;23694;43.274;26.924;2023-05-25T11:16:21;98890.56;;;19.85;92.90
37856;BME280;23694;43.274;26.924;2023-05-25T11:18:54;98880.44;;;20.13;88.56
37856;BME280;23694;43.274;26.924;2023-05-25T11:24:13;98881.59;;;20.51;87.69
37856;BME280;23694;43.274;26.924;2023-05-25T11:27:12;98874.25;;;20.61;88.74
37856;BME280;23694;43.274;26.924;2023-05-25T11:29:38;98878.22;;;20.73;88.88
37856;BME280;23694;43.274;26.924;2023-05-25T11:32:12;98877.88;;;20.76;90.09
37856;BME280;23694;43.274;26.924;2023-05-25T11:34:39;98884.38;;;20.66;89.49
37856;BME280;23694;43.274;26.924;2023-05-25T11:37:15;98869.22;;;20.82;88.82
37856;BME280;23694;43.274;26.924;2023-05-25T11:39:48;98867.22;;;20.76;90.44
37856;BME280;23694;43.274;26.924;2023-05-25T11:42:16;98854.25;;;20.73;89.65
37856;BME280;23694;43.274;26.924;2023-05-25T11:44:42;98856.41;;;20.78;88.75
37856;BME280;23694;43.274;26.924;2023-05-25T11:47:09;98854.56;;;20.86;87.45
37856;BME280;23694;43.274;26.924;2023-05-25T11:49:47;98847.56;;;20.94;86.74
37856;BME280;23694;43.274;26.924;2023-05-25T11:52:18;98848.16;;;21.04;88.06
37856;BME280;23694;43.274;26.924;2023-05-25T11:54:45;98846.41;;;20.88;89.46
37856;BME280;23694;43.274;26.924;2023-05-25T11:57:20;98849.41;;;20.85;89.71
37856;BME280;23694;43.274;26.924;2023-05-25T11:59:54;98848.25;;;20.87;90.22
37856;BME280;23694;43.274;26.924;2023-05-25T12:02:21;98847.91;;;20.91;90.11
37856;BME280;23694;43.274;26.924;2023-05-25T12:04:55;98854.06;;;20.91;90.28
37856;BME280;23694;43.274;26.924;2023-05-25T12:07:24;98857.56;;;20.92;88.94
37856;BME280;23694;43.274;26.924;2023-05-25T12:09:51;98871.38;;;20.87;89.17
37856;BME280;23694;43.274;26.924;2023-05-25T12:12:20;98882.97;;;21.02;89.41
37856;BME280;23694;43.274;26.924;2023-05-25T12:14:48;98894.91;;;21.14;89.35
37856;BME280;23694;43.274;26.924;2023-05-25T12:17:20;98905.53;;;21.23;89.14
37856;BME280;23694;43.274;26.924;2023-05-25T12:19:46;98909.88;;;21.24;85.91
37856;BME280;23694;43.274;26.924;2023-05-25T12:22:12;98915.84;;;21.17;87.82
37856;BME280;23694;43.274;26.924;2023-05-25T12:24:39;98936.66;;;21.22;87.73
37856;BME280;23694;43.274;26.924;2023-05-25T12:27:19;98948.16;;;21.14;86.80
37856;BME280;23694;43.274;26.924;2023-05-25T12:29:48;98949.94;;;20.42;86.72
37856;BME280;23694;43.274;26.924;2023-05-25T12:32:14;98946.59;;;20.16;89.49
37856;BME280;23694;43.274;26.924;2023-05-25T12:34:41;98967.13;;;19.73;89.47
37856;BME280;23694;43.274;26.924;2023-05-25T12:37:17;98975.56;;;19.60;91.22
37856;BME280;23694;43.274;26.924;2023-05-25T12:39:44;98960.59;;;19.59;93.53
37856;BME280;23694;43.274;26.924;2023-05-25T12:42:15;98945.72;;;19.83;96.45
37856;BME280;23694;43.274;26.924;2023-05-25T12:44:43;98948.84;;;19.78;96.51
37856;BME280;23694;43.274;26.924;2023-05-25T12:47:12;98950.53;;;19.45;96.47
37856;BME280;23694;43.274;26.924;2023-05-25T12:49:42;98953.81;;;19.31;95.75
37856;BME280;23694;43.274;26.924;2023-05-25T12:52:09;98948.06;;;18.84;97.70
37856;BME280;23694;43.274;26.924;2023-05-25T12:54:43;98950.72;;;18.58;95.11
37856;BME280;23694;43.274;26.924;2023-05-25T12:57:15;98941.69;;;18.68;90.89
37856;BME280;23694;43.274;26.924;2023-05-25T12:59:48;98932.47;;;19.07;95.83
37856;BME280;23694;43.274;26.924;2023-05-25T13:02:20;98938.72;;;19.40;98.56
37856;BME280;23694;43.274;26.924;2023-05-25T13:04:46;98940.84;;;19.54;97.71
37856;BME280;23694;43.274;26.924;2023-05-25T13:07:12;98928.88;;;19.58;93.69
37856;BME280;23694;43.274;26.924;2023-05-25T13:09:39;98962.81;;;19.38;89.24
37856;BME280;23694;43.274;26.924;2023-05-25T13:12:05;98973.94;;;19.08;88.77
37856;BME280;23694;43.274;26.924;2023-05-25T13:14:31;98975.50;;;18.66;90.39
37856;BME280;23694;43.274;26.924;2023-05-25T13:16:57;98970.72;;;18.52;96.71
37856;BME280;23694;43.274;26.924;2023-05-25T13:19:24;98966.63;;;18.58;97.64
37856;BME280;23694;43.274;26.924;2023-05-25T13:21:51;98941.75;;;18.33;98.51
37856;BME280;23694;43.274;26.924;2023-05-25T13:24:18;98939.19;;;18.23;98.42
37856;BME280;23694;43.274;26.924;2023-05-25T13:26:45;98935.69;;;18.23;98.19
37856;BME280;23694;43.274;26.924;2023-05-25T13:29:11;98942.28;;;18.01;98.30
37856;BME280;23694;43.274;26.924;2023-05-25T13:31:37;98939.53;;;18.11;97.29
37856;BME280;23694;43.274;26.924;2023-05-25T13:34:03;98930.09;;;18.26;96.63
37856;BME280;23694;43.274;26.924;2023-05-25T13:36:29;98916.59;;;18.01;93.61
37856;BME280;23694;43.274;26.924;2023-05-25T13:38:57;98908.09;;;17.62;92.56
37856;BME280;23694;43.274;26.924;2023-05-25T13:41:24;98896.03;;;17.50;95.17
37856;BME280;23694;43.274;26.924;2023-05-25T13:43:50;98876.19;;;17.36;100.00
37856;BME280;23694;43.274;26.924;2023-05-25T13:46:16;98860.84;;;17.67;98.92
37856;BME280;23694;43.274;26.924;2023-05-25T13:48:42;98865.31;;;18.11;96.06
37856;BME280;23694;43.274;26.924;2023-05-25T13:51:13;98869.69;;;18.37;87.26
37856;BME280;23694;43.274;26.924;2023-05-25T13:53:40;98860.16;;;18.79;85.16
37856;BME280;23694;43.274;26.924;2023-05-25T13:56:06;98851.69;;;19.17;80.80
37856;BME280;23694;43.274;26.924;2023-05-25T13:58:32;98846.59;;;19.32;73.67
37856;BME280;23694;43.274;26.924;2023-05-25T14:00:58;98836.91;;;19.57;85.70
37856;BME280;23694;43.274;26.924;2023-05-25T14:03:24;98836.25;;;19.71;85.74
37856;BME280;23694;43.274;26.924;2023-05-25T14:05:50;98826.28;;;19.89;87.24
37856;BME280;23694;43.274;26.924;2023-05-25T14:08:18;98830.06;;;20.11;85.81
37856;BME280;23694;43.274;26.924;2023-05-25T14:10:44;98819.94;;;20.23;83.29
37856;BME280;23694;43.274;26.924;2023-05-25T14:13:10;98817.91;;;20.49;83.19
37856;BME280;23694;43.274;26.924;2023-05-25T14:15:36;98818.16;;;20.71;80.60
37856;BME280;23694;43.274;26.924;2023-05-25T14:18:02;98812.81;;;20.87;79.36
37856;BME280;23694;43.274;26.924;2023-05-25T14:20:28;98808.41;;;21.02;80.90
37856;BME280;23694;43.274;26.924;2023-05-25T14:22:58;98803.22;;;21.09;80.26
37856;BME280;23694;43.274;26.924;2023-05-25T14:25:25;98796.34;;;21.14;78.00
37856;BME280;23694;43.274;26.924;2023-05-25T14:27:51;98786.53;;;21.15;78.48
37856;BME280;23694;43.274;26.924;2023-05-25T14:30:17;98786.81;;;21.20;79.11
37856;BME280;23694;43.274;26.924;2023-05-25T14:32:43;98778.53;;;21.15;80.84
37856;BME280;23694;43.274;26.924;2023-05-25T14:35:09;98757.59;;;21.12;80.82
37856;BME280;23694;43.274;26.924;2023-05-25T14:37:35;98753.91;;;21.13;80.85
37856;BME280;23694;43.274;26.924;2023-05-25T14:40:01;98742.44;;;21.12;81.97